Moosomin, Canada
Current Conditions -  °F | °C
As of 5:00 AM on Thursday 23 Oct 2014 (Local Time) from CYBR Reporting Station
Scattered Clouds Scattered Clouds  
Wind Chill: 39°   Ceiling: Unl
Heat Index: 43°   Visibility: 15mi
Dew Point: 41°   Wind: 7mph
Humidity: 93%   Direction: 250°WSW
Pressure: 29.77"   Gusts: NA
Location:  50.15°N, 101.67°W
Report Text: CYBR 231100Z 25006KT 15SM SCT100 06/05 A2977 RMK AC3 SLP092
Loading
Personal Weather Stations






























Interactive Weather Map
Tropical Storm Tracking
New forecast layout! Learn more

10-Day Weather Forecast

Advertisements
Track Severe Weather on mobile